createdAt,value
2023-12-09T00:00:44.704Z,8.33
2023-12-09T00:01:44.719Z,8.01
2023-12-09T00:02:44.820Z,8.01
2023-12-09T00:03:44.842Z,8.01
2023-12-09T00:04:44.746Z,8.33
2023-12-09T00:05:44.781Z,8.65
2023-12-09T00:06:44.852Z,8.65
2023-12-09T00:07:44.807Z,8.01
2023-12-09T00:08:44.813Z,8.01
2023-12-09T00:09:44.848Z,8.01
2023-12-09T00:10:44.859Z,8.65
2023-12-09T00:11:44.857Z,8.01
2023-12-09T00:12:44.875Z,7.69
2023-12-09T00:13:44.937Z,8.01
2023-12-09T00:14:44.942Z,8.01
2023-12-09T00:15:44.950Z,8.33
2023-12-09T00:16:44.941Z,8.33
2023-12-09T00:17:44.993Z,8.01
2023-12-09T00:18:45.078Z,8.65
2023-12-09T00:19:45.005Z,7.69
2023-12-09T00:20:45.017Z,8.01
2023-12-09T00:21:45.012Z,7.69
2023-12-09T00:22:45.036Z,8.33
2023-12-09T00:23:47.783Z,8.01
2023-12-09T00:24:45.040Z,8.65
2023-12-09T00:25:45.058Z,8.01
2023-12-09T00:26:45.557Z,8.01
2023-12-09T00:27:45.134Z,8.01
2023-12-09T00:28:45.155Z,8.01
2023-12-09T00:29:45.134Z,8.33
2023-12-09T00:30:45.140Z,7.69
2023-12-09T00:31:45.177Z,7.69
2023-12-09T00:32:45.254Z,8.33
2023-12-09T00:33:45.333Z,8.33
2023-12-09T00:34:45.240Z,8.33
2023-12-09T00:35:45.212Z,8.01
2023-12-09T00:36:45.231Z,8.01
2023-12-09T00:37:45.242Z,8.01
2023-12-09T00:38:45.278Z,7.69
2023-12-09T00:39:45.268Z,8.65
2023-12-09T00:40:45.282Z,8.01
2023-12-09T00:41:45.274Z,7.69
2023-12-09T00:42:45.289Z,8.01
2023-12-09T00:43:45.307Z,8.01
2023-12-09T00:44:45.328Z,8.33
2023-12-09T00:45:46.071Z,8.33
2023-12-09T00:46:45.367Z,8.01
2023-12-09T00:47:45.452Z,8.01
2023-12-09T00:48:45.517Z,8.01
2023-12-09T00:49:45.500Z,8.33
2023-12-09T00:50:45.401Z,8.65
2023-12-09T00:51:45.406Z,7.69
2023-12-09T00:52:45.419Z,8.01
2023-12-09T00:53:45.432Z,7.69
2023-12-09T00:54:45.474Z,8.01
2023-12-09T00:55:46.048Z,8.01
2023-12-09T00:56:45.490Z,8.33
2023-12-09T00:57:45.491Z,8.01
2023-12-09T00:58:45.529Z,7.69
2023-12-09T00:59:45.520Z,7.69
2023-12-09T01:00:45.671Z,7.69
2023-12-09T01:01:45.582Z,8.33
2023-12-09T01:02:45.680Z,8.01
2023-12-09T01:03:45.659Z,8.01
2023-12-09T01:04:45.630Z,8.01
2023-12-09T01:05:45.609Z,8.33
2023-12-09T01:06:45.639Z,7.69
2023-12-09T01:07:45.630Z,8.01
2023-12-09T01:08:45.656Z,8.01
2023-12-09T01:09:45.739Z,8.01
2023-12-09T01:10:46.566Z,8.01
2023-12-09T01:11:45.714Z,8.33
2023-12-09T01:12:45.830Z,8.01
2023-12-09T01:13:45.735Z,8.33
2023-12-09T01:14:45.746Z,7.69
2023-12-09T01:15:45.747Z,8.01
2023-12-09T01:16:45.843Z,8.33
2023-12-09T01:17:45.806Z,8.33
2023-12-09T01:18:46.250Z,8.33
2023-12-09T01:19:45.863Z,8.33
2023-12-09T01:20:45.825Z,8.01
2023-12-09T01:21:45.873Z,7.69
2023-12-09T01:22:45.854Z,8.33
2023-12-09T01:23:45.865Z,8.33
2023-12-09T01:24:45.974Z,8.01
2023-12-09T01:25:45.936Z,8.01
2023-12-09T01:26:45.991Z,8.33
2023-12-09T01:27:45.942Z,8.33
2023-12-09T01:28:45.975Z,7.69
2023-12-09T01:29:46.609Z,7.69
2023-12-09T01:30:45.999Z,7.69
2023-12-09T01:31:46.064Z,8.01
2023-12-09T01:32:46.092Z,7.69
2023-12-09T01:33:46.179Z,8.01
2023-12-09T01:34:46.384Z,8.33
2023-12-09T01:35:46.075Z,8.33
2023-12-09T01:36:46.092Z,8.01
2023-12-09T01:37:46.090Z,8.01
2023-12-09T01:38:46.945Z,7.69
2023-12-09T01:39:46.132Z,8.01
2023-12-09T01:40:46.174Z,8.01
2023-12-09T01:41:46.945Z,8.01
2023-12-09T01:42:46.235Z,8.01
2023-12-09T01:43:46.192Z,8.01
2023-12-09T01:44:46.202Z,8.01
2023-12-09T01:45:46.946Z,8.01
2023-12-09T01:46:46.300Z,8.33
2023-12-09T01:47:46.286Z,8.01
2023-12-09T01:48:46.673Z,8.01
2023-12-09T01:49:46.458Z,8.01
2023-12-09T01:50:46.362Z,8.01
2023-12-09T01:51:46.300Z,8.01
2023-12-09T01:52:46.317Z,8.33
2023-12-09T01:53:46.329Z,8.33
2023-12-09T01:54:46.351Z,8.01
2023-12-09T01:55:46.366Z,8.01
2023-12-09T01:56:46.392Z,8.33
2023-12-09T01:57:46.398Z,8.33
2023-12-09T01:58:46.435Z,8.01
2023-12-09T01:59:46.418Z,8.01
2023-12-09T02:00:46.623Z,8.01
2023-12-09T02:01:46.446Z,8.01
2023-12-09T02:02:46.514Z,8.01
2023-12-09T02:03:46.555Z,8.01
2023-12-09T02:04:46.501Z,8.33
2023-12-09T02:05:46.516Z,8.01
2023-12-09T02:06:46.533Z,8.01
2023-12-09T02:07:46.508Z,8.33
2023-12-09T02:08:46.535Z,8.01
2023-12-09T02:09:46.545Z,8.01
2023-12-09T02:10:46.566Z,8.01
2023-12-09T02:11:46.591Z,8.01
2023-12-09T02:12:46.608Z,8.01
2023-12-09T02:13:46.603Z,8.01
2023-12-09T02:14:46.632Z,8.01
2023-12-09T02:15:46.638Z,8.01
2023-12-09T02:16:46.650Z,8.01
2023-12-09T02:17:47.197Z,8.01
2023-12-09T02:18:46.733Z,8.01
2023-12-09T02:19:46.725Z,8.01
2023-12-09T02:20:46.727Z,8.01
2023-12-09T02:21:46.725Z,8.01
2023-12-09T02:22:46.745Z,8.33
2023-12-09T02:23:46.743Z,8.33
2023-12-09T02:24:46.752Z,8.01
2023-12-09T02:25:46.785Z,8.01
2023-12-09T02:26:46.796Z,7.69
2023-12-09T02:27:46.813Z,8.01
2023-12-09T02:28:46.827Z,7.69
2023-12-09T02:29:46.869Z,7.69
2023-12-09T02:30:46.822Z,7.69
2023-12-09T02:31:46.834Z,7.69
2023-12-09T02:32:47.071Z,8.33
2023-12-09T02:33:46.988Z,8.01
2023-12-09T02:34:46.921Z,8.01
2023-12-09T02:35:46.876Z,8.01
2023-12-09T02:36:49.922Z,8.01
2023-12-09T02:37:46.939Z,7.69
2023-12-09T02:38:46.963Z,7.36
2023-12-09T02:39:46.969Z,8.01
2023-12-09T02:40:46.952Z,8.01
2023-12-09T02:41:47.058Z,8.01
2023-12-09T02:42:46.989Z,8.01
2023-12-09T02:43:47.041Z,8.01
2023-12-09T02:44:47.019Z,8.01
2023-12-09T02:45:47.090Z,7.69
2023-12-09T02:46:47.053Z,8.01
2023-12-09T02:47:47.129Z,7.69
2023-12-09T02:48:47.188Z,8.33
2023-12-09T02:49:47.104Z,7.69
2023-12-09T02:50:47.095Z,7.69
2023-12-09T02:51:47.126Z,7.69
2023-12-09T02:52:47.134Z,8.65
2023-12-09T02:53:47.138Z,8.01
2023-12-09T02:54:47.168Z,8.01
2023-12-09T02:55:47.157Z,7.69
2023-12-09T02:56:47.180Z,7.69
2023-12-09T02:57:47.232Z,7.69
2023-12-09T02:58:47.227Z,8.33
2023-12-09T02:59:47.219Z,8.01
2023-12-09T03:00:47.327Z,8.01
2023-12-09T03:01:47.265Z,7.69
2023-12-09T03:02:47.276Z,7.69
2023-12-09T03:03:47.351Z,7.36
2023-12-09T03:04:47.309Z,7.69
2023-12-09T03:05:47.296Z,7.69
2023-12-09T03:06:47.315Z,8.01
2023-12-09T03:07:47.322Z,8.01
2023-12-09T03:08:47.375Z,7.36
2023-12-09T03:09:47.344Z,8.33
2023-12-09T03:10:47.366Z,8.01
2023-12-09T03:11:47.591Z,8.01
2023-12-09T03:12:47.409Z,8.01
2023-12-09T03:13:47.407Z,8.01
2023-12-09T03:14:47.431Z,8.01
2023-12-09T03:15:47.453Z,8.33
2023-12-09T03:16:47.499Z,8.01
2023-12-09T03:17:47.541Z,8.01
2023-12-09T03:18:47.745Z,7.69
2023-12-09T03:19:47.555Z,8.01
2023-12-09T03:20:47.507Z,8.01
2023-12-09T03:21:47.525Z,8.01
2023-12-09T03:22:47.525Z,7.69
2023-12-09T03:23:47.536Z,8.33
2023-12-09T03:24:47.557Z,7.69
2023-12-09T03:25:47.585Z,8.01
2023-12-09T03:26:47.592Z,8.01
2023-12-09T03:27:48.103Z,7.69
2023-12-09T03:28:47.631Z,7.69
2023-12-09T03:29:47.652Z,8.01
2023-12-09T03:30:47.642Z,8.01
2023-12-09T03:31:47.716Z,8.01
2023-12-09T03:32:47.691Z,8.01
2023-12-09T03:33:47.774Z,7.69
2023-12-09T03:34:47.727Z,8.33
2023-12-09T03:35:47.713Z,8.33
2023-12-09T03:36:47.724Z,8.01
2023-12-09T03:37:47.748Z,8.01
2023-12-09T03:38:47.790Z,7.69
2023-12-09T03:39:47.758Z,7.69
2023-12-09T03:40:47.767Z,7.69
2023-12-09T03:41:47.795Z,7.69
2023-12-09T03:42:47.831Z,7.69
2023-12-09T03:43:47.863Z,7.69
2023-12-09T03:44:47.816Z,7.69
2023-12-09T03:45:47.830Z,8.01
2023-12-09T03:46:47.874Z,8.01
2023-12-09T03:47:47.921Z,7.36
2023-12-09T03:48:48.034Z,8.01
2023-12-09T03:49:47.988Z,7.69
2023-12-09T03:50:47.924Z,7.69
2023-12-09T03:51:47.926Z,7.69
2023-12-09T03:52:47.926Z,7.69
2023-12-09T03:53:47.944Z,8.01
2023-12-09T03:54:47.960Z,8.01
2023-12-09T03:55:48.009Z,8.01
2023-12-09T03:56:47.986Z,7.69
2023-12-09T03:57:48.014Z,7.69
2023-12-09T03:58:48.011Z,7.36
2023-12-09T03:59:48.063Z,7.69
2023-12-09T04:00:48.122Z,8.01
2023-12-09T04:01:48.052Z,7.69
2023-12-09T04:02:48.077Z,7.36
2023-12-09T04:03:48.203Z,8.01
2023-12-09T04:04:48.082Z,7.69
2023-12-09T04:05:48.257Z,7.69
2023-12-09T04:06:48.177Z,8.01
2023-12-09T04:07:48.156Z,7.69
2023-12-09T04:08:48.147Z,8.01
2023-12-09T04:09:48.164Z,7.69
2023-12-09T04:10:48.195Z,8.01
2023-12-09T04:11:48.191Z,8.01
2023-12-09T04:12:48.225Z,8.01
2023-12-09T04:13:48.250Z,8.01
2023-12-09T04:14:48.226Z,7.36
2023-12-09T04:15:48.274Z,8.01
2023-12-09T04:16:49.152Z,7.36
2023-12-09T04:17:48.374Z,7.36
2023-12-09T04:18:48.415Z,7.69
2023-12-09T04:19:48.366Z,7.36
2023-12-09T04:20:48.319Z,7.69
2023-12-09T04:21:48.317Z,7.69
2023-12-09T04:22:48.349Z,8.01
2023-12-09T04:23:48.370Z,7.36
2023-12-09T04:24:48.370Z,7.69
2023-12-09T04:25:49.153Z,8.01
2023-12-09T04:26:48.438Z,7.69
2023-12-09T04:27:48.402Z,7.36
2023-12-09T04:28:48.417Z,7.69
2023-12-09T04:29:48.408Z,7.69
2023-12-09T04:30:48.449Z,7.69
2023-12-09T04:31:48.449Z,7.69
2023-12-09T04:32:48.510Z,7.36
2023-12-09T04:33:48.537Z,7.69
2023-12-09T04:34:48.483Z,7.69
2023-12-09T04:35:48.480Z,8.01
2023-12-09T04:36:48.499Z,7.36
2023-12-09T04:37:48.521Z,7.69
2023-12-09T04:38:48.521Z,7.36
2023-12-09T04:39:48.545Z,7.69
2023-12-09T04:40:48.558Z,7.36
2023-12-09T04:41:48.579Z,7.69
2023-12-09T04:42:48.593Z,7.69
2023-12-09T04:43:48.620Z,7.36
2023-12-09T04:44:48.615Z,7.69
2023-12-09T04:45:48.622Z,7.36
2023-12-09T04:46:48.632Z,7.36
2023-12-09T04:47:48.721Z,7.36
2023-12-09T04:48:48.864Z,7.69
2023-12-09T04:49:48.758Z,7.36
2023-12-09T04:50:48.691Z,7.36
2023-12-09T04:51:48.732Z,7.04
2023-12-09T04:52:48.727Z,7.04
2023-12-09T04:53:48.704Z,7.69
2023-12-09T04:54:48.705Z,7.36
2023-12-09T04:55:48.729Z,7.36
2023-12-09T04:56:48.736Z,7.04
2023-12-09T04:57:48.774Z,7.36
2023-12-09T04:58:48.764Z,7.36
2023-12-09T04:59:48.809Z,7.04
2023-12-09T05:00:48.870Z,7.36
2023-12-09T05:01:48.877Z,6.72
2023-12-09T05:02:48.839Z,7.36
2023-12-09T05:03:48.975Z,7.04
2023-12-09T05:04:48.866Z,6.72
2023-12-09T05:05:48.926Z,7.04
2023-12-09T05:06:49.052Z,7.36
2023-12-09T05:07:48.931Z,7.36
2023-12-09T05:08:48.908Z,7.69
2023-12-09T05:09:48.973Z,7.04
2023-12-09T05:10:48.946Z,7.36
2023-12-09T05:11:48.979Z,7.04
2023-12-09T05:12:48.986Z,7.36
2023-12-09T05:13:49.007Z,7.04
2023-12-09T05:14:49.036Z,7.04
2023-12-09T05:15:49.077Z,7.36
2023-12-09T05:16:49.045Z,7.04
2023-12-09T05:17:49.301Z,6.72
2023-12-09T05:18:49.273Z,6.72
2023-12-09T05:19:49.244Z,6.72
2023-12-09T05:20:49.171Z,7.04
2023-12-09T05:21:49.178Z,7.04
2023-12-09T05:22:49.369Z,6.72
2023-12-09T05:23:49.240Z,6.72
2023-12-09T05:24:49.303Z,6.40
2023-12-09T05:25:49.350Z,6.72
2023-12-09T05:26:49.331Z,6.40
2023-12-09T05:27:49.234Z,6.72
2023-12-09T05:28:49.307Z,7.04
2023-12-09T05:29:49.317Z,7.04
2023-12-09T05:30:49.277Z,7.04
2023-12-09T05:31:49.335Z,7.36
2023-12-09T05:32:49.391Z,6.72
2023-12-09T05:33:49.515Z,7.04
2023-12-09T05:34:49.707Z,6.72
2023-12-09T05:35:49.298Z,6.72
2023-12-09T05:36:49.301Z,6.72
2023-12-09T05:37:49.429Z,7.04
2023-12-09T05:38:49.326Z,7.04
2023-12-09T05:39:49.342Z,7.04
2023-12-09T05:40:49.402Z,7.04
2023-12-09T05:41:49.400Z,6.72
2023-12-09T05:42:50.227Z,6.40
2023-12-09T05:43:49.414Z,6.72
2023-12-09T05:44:49.444Z,6.40
2023-12-09T05:45:49.449Z,7.04
2023-12-09T05:46:49.472Z,6.72
2023-12-09T05:47:49.497Z,7.04
2023-12-09T05:48:49.803Z,6.40
2023-12-09T05:49:49.733Z,7.04
2023-12-09T05:50:49.522Z,6.72
2023-12-09T05:51:49.518Z,6.72
2023-12-09T05:52:49.581Z,6.40
2023-12-09T05:53:49.562Z,6.72
2023-12-09T05:54:49.570Z,7.04
2023-12-09T05:55:49.585Z,7.04
2023-12-09T05:56:49.608Z,7.04
2023-12-09T05:57:49.628Z,7.04
2023-12-09T05:58:49.672Z,7.04
2023-12-09T05:59:50.511Z,6.72
2023-12-09T06:00:49.835Z,6.72
2023-12-09T06:01:49.674Z,6.72
2023-12-09T06:02:49.691Z,6.72
2023-12-09T06:03:49.696Z,6.72
2023-12-09T06:04:49.799Z,6.72
2023-12-09T06:05:49.775Z,6.72
2023-12-09T06:06:49.731Z,7.04
2023-12-09T06:07:49.761Z,7.04
2023-12-09T06:08:49.772Z,6.72
2023-12-09T06:09:49.785Z,7.04
2023-12-09T06:10:49.796Z,7.04
2023-12-09T06:11:49.892Z,7.04
2023-12-09T06:12:49.881Z,6.72
2023-12-09T06:13:49.838Z,6.72
2023-12-09T06:14:49.848Z,7.04
2023-12-09T06:15:51.475Z,6.72
2023-12-09T06:16:49.881Z,6.72
2023-12-09T06:17:49.925Z,7.04
2023-12-09T06:18:49.931Z,6.40
2023-12-09T06:19:49.982Z,6.72
2023-12-09T06:20:49.945Z,6.72
2023-12-09T06:21:49.968Z,6.40
2023-12-09T06:22:50.032Z,7.04
2023-12-09T06:23:49.982Z,6.40
2023-12-09T06:24:50.085Z,6.40
2023-12-09T06:25:50.030Z,6.40
2023-12-09T06:26:50.027Z,6.72
2023-12-09T06:27:50.059Z,6.40
2023-12-09T06:28:50.088Z,6.72
2023-12-09T06:29:50.110Z,7.04
2023-12-09T06:30:50.141Z,6.72
2023-12-09T06:31:50.122Z,7.04
2023-12-09T06:32:50.222Z,6.72
2023-12-09T06:33:50.275Z,6.40
2023-12-09T06:34:50.214Z,6.72
2023-12-09T06:35:50.189Z,6.40
2023-12-09T06:36:50.202Z,6.40
2023-12-09T06:37:50.227Z,6.07
2023-12-09T06:38:50.238Z,6.72
2023-12-09T06:39:50.296Z,6.40
2023-12-09T06:40:50.322Z,6.40
2023-12-09T06:41:50.286Z,6.40
2023-12-09T06:42:50.345Z,6.72
2023-12-09T06:43:50.353Z,6.40
2023-12-09T06:44:50.352Z,6.40
2023-12-09T06:45:50.429Z,6.72
2023-12-09T06:46:50.387Z,6.40
2023-12-09T06:47:50.575Z,6.72
2023-12-09T06:48:50.551Z,6.07
2023-12-09T06:49:50.532Z,6.07
2023-12-09T06:50:50.432Z,6.40
2023-12-09T06:51:50.454Z,6.07
2023-12-09T06:52:50.694Z,6.40
2023-12-09T06:53:50.482Z,6.07
2023-12-09T06:54:50.500Z,6.40
2023-12-09T06:55:50.511Z,6.40
2023-12-09T06:56:50.521Z,6.40
2023-12-09T06:57:50.565Z,6.07
2023-12-09T06:58:50.584Z,6.07
2023-12-09T06:59:50.578Z,6.40
2023-12-09T07:00:50.716Z,6.72
2023-12-09T07:01:50.613Z,6.40
2023-12-09T07:02:58.761Z,6.40
2023-12-09T07:03:50.803Z,6.07
2023-12-09T07:04:50.688Z,6.40
2023-12-09T07:05:51.669Z,6.40
2023-12-09T07:06:50.689Z,6.40
2023-12-09T07:07:50.703Z,6.40
2023-12-09T07:08:50.728Z,6.40
2023-12-09T07:09:50.744Z,7.04
2023-12-09T07:10:50.751Z,6.07
2023-12-09T07:12:01.472Z,6.40
2023-12-09T07:12:50.929Z,6.07
2023-12-09T07:13:50.820Z,6.07
2023-12-09T07:14:50.809Z,6.72
2023-12-09T07:15:50.830Z,6.07
2023-12-09T07:16:50.853Z,6.07
2023-12-09T07:17:50.961Z,6.40
2023-12-09T07:18:51.021Z,6.40
2023-12-09T07:19:51.006Z,7.36
2023-12-09T07:20:50.909Z,6.40
2023-12-09T07:21:50.989Z,6.40
2023-12-09T07:22:50.943Z,6.72
2023-12-09T07:23:50.950Z,6.40
2023-12-09T07:24:50.972Z,6.07
2023-12-09T07:25:50.987Z,6.40
2023-12-09T07:26:51.003Z,6.07
2023-12-09T07:27:51.010Z,6.40
2023-12-09T07:28:51.034Z,6.72
2023-12-09T07:29:51.053Z,6.40
2023-12-09T07:30:51.066Z,6.07
2023-12-09T07:31:51.079Z,6.40
2023-12-09T07:32:51.186Z,6.40
2023-12-09T07:33:51.236Z,6.72
2023-12-09T07:34:52.484Z,6.40
2023-12-09T07:35:51.134Z,6.40
2023-12-09T07:36:51.168Z,6.40
2023-12-09T07:37:51.170Z,6.40
2023-12-09T07:38:51.223Z,6.40
2023-12-09T07:39:51.328Z,5.75
2023-12-09T07:40:51.232Z,6.40
2023-12-09T07:41:51.226Z,5.75
2023-12-09T07:42:51.264Z,6.40
2023-12-09T07:43:51.287Z,6.40
2023-12-09T07:44:51.277Z,6.72
2023-12-09T07:45:51.299Z,6.40
2023-12-09T07:46:51.306Z,6.40
2023-12-09T07:47:51.401Z,6.07
2023-12-09T07:48:51.474Z,6.40
2023-12-09T07:49:51.451Z,6.40
2023-12-09T07:50:51.372Z,6.40
2023-12-09T07:51:51.386Z,6.72
2023-12-09T07:52:51.477Z,6.72
2023-12-09T07:53:51.725Z,6.72
2023-12-09T07:54:51.489Z,6.72
2023-12-09T07:55:51.452Z,6.07
2023-12-09T07:56:52.047Z,6.40
2023-12-09T07:57:51.509Z,6.72
2023-12-09T07:58:51.517Z,6.72
2023-12-09T07:59:51.570Z,6.72
2023-12-09T08:00:51.730Z,7.04
2023-12-09T08:01:51.552Z,6.72
2023-12-09T08:02:51.559Z,6.72
2023-12-09T08:03:51.687Z,6.72
2023-12-09T08:04:51.600Z,6.72
2023-12-09T08:05:51.660Z,6.72
2023-12-09T08:06:51.677Z,7.04
